sensor_id;sensor_type;location;lat;lon;timestamp;P1;durP1;ratioP1;P2;durP2;ratioP2
47778;SDS011;33538;48.432;11.350;2023-06-10T00:01:31;5.80;;;4.28;;
47778;SDS011;33538;48.432;11.350;2023-06-10T00:04:00;6.72;;;4.57;;
47778;SDS011;33538;48.432;11.350;2023-06-10T00:06:27;7.63;;;5.03;;
47778;SDS011;33538;48.432;11.350;2023-06-10T00:08:53;7.00;;;4.80;;
47778;SDS011;33538;48.432;11.350;2023-06-10T00:14:49;6.63;;;4.60;;
47778;SDS011;33538;48.432;11.350;2023-06-10T00:17:15;7.40;;;4.72;;
47778;SDS011;33538;48.432;11.350;2023-06-10T00:19:43;8.25;;;5.35;;
47778;SDS011;33538;48.432;11.350;2023-06-10T00:22:10;4.95;;;4.20;;
47778;SDS011;33538;48.432;11.350;2023-06-10T00:24:37;6.20;;;4.28;;
47778;SDS011;33538;48.432;11.350;2023-06-10T00:27:04;6.28;;;4.85;;
47778;SDS011;33538;48.432;11.350;2023-06-10T00:29:31;6.50;;;4.53;;
47778;SDS011;33538;48.432;11.350;2023-06-10T00:31:58;7.78;;;5.45;;
47778;SDS011;33538;48.432;11.350;2023-06-10T00:34:25;8.23;;;5.35;;
47778;SDS011;33538;48.432;11.350;2023-06-10T00:36:53;8.15;;;5.03;;
47778;SDS011;33538;48.432;11.350;2023-06-10T00:39:20;10.55;;;4.95;;
47778;SDS011;33538;48.432;11.350;2023-06-10T00:41:47;6.35;;;4.68;;
47778;SDS011;33538;48.432;11.350;2023-06-10T00:44:15;6.35;;;4.57;;
47778;SDS011;33538;48.432;11.350;2023-06-10T00:46:42;7.68;;;4.90;;
47778;SDS011;33538;48.432;11.350;2023-06-10T00:49:09;7.18;;;5.00;;
47778;SDS011;33538;48.432;11.350;2023-06-10T00:51:36;9.48;;;4.95;;
47778;SDS011;33538;48.432;11.350;2023-06-10T00:54:04;5.90;;;4.35;;
47778;SDS011;33538;48.432;11.350;2023-06-10T00:56:32;6.32;;;4.55;;
47778;SDS011;33538;48.432;11.350;2023-06-10T00:58:59;6.72;;;4.97;;
47778;SDS011;33538;48.432;11.350;2023-06-10T01:01:26;8.23;;;4.75;;
47778;SDS011;33538;48.432;11.350;2023-06-10T01:03:54;7.25;;;4.70;;
47778;SDS011;33538;48.432;11.350;2023-06-10T01:06:24;7.20;;;5.07;;
47778;SDS011;33538;48.432;11.350;2023-06-10T01:09:00;8.38;;;5.18;;
47778;SDS011;33538;48.432;11.350;2023-06-10T01:11:47;7.35;;;4.95;;
47778;SDS011;33538;48.432;11.350;2023-06-10T01:14:19;6.80;;;4.65;;
47778;SDS011;33538;48.432;11.350;2023-06-10T01:16:46;5.28;;;4.10;;
47778;SDS011;33538;48.432;11.350;2023-06-10T01:19:13;6.13;;;4.30;;
47778;SDS011;33538;48.432;11.350;2023-06-10T01:21:41;7.25;;;5.10;;
47778;SDS011;33538;48.432;11.350;2023-06-10T01:24:07;5.85;;;3.88;;
47778;SDS011;33538;48.432;11.350;2023-06-10T01:26:34;8.00;;;4.25;;
47778;SDS011;33538;48.432;11.350;2023-06-10T01:29:03;6.55;;;4.97;;
47778;SDS011;33538;48.432;11.350;2023-06-10T01:31:36;8.15;;;4.65;;
47778;SDS011;33538;48.432;11.350;2023-06-10T01:34:09;7.93;;;4.88;;
47778;SDS011;33538;48.432;11.350;2023-06-10T01:36:38;7.53;;;5.13;;
47778;SDS011;33538;48.432;11.350;2023-06-10T01:39:09;6.28;;;4.47;;
47778;SDS011;33538;48.432;11.350;2023-06-10T01:41:37;5.80;;;4.47;;
47778;SDS011;33538;48.432;11.350;2023-06-10T01:44:05;6.95;;;4.97;;
47778;SDS011;33538;48.432;11.350;2023-06-10T01:46:32;8.18;;;5.07;;
47778;SDS011;33538;48.432;11.350;2023-06-10T01:48:59;6.40;;;4.40;;
47778;SDS011;33538;48.432;11.350;2023-06-10T01:51:25;6.15;;;4.30;;
47778;SDS011;33538;48.432;11.350;2023-06-10T01:53:54;5.93;;;4.78;;
47778;SDS011;33538;48.432;11.350;2023-06-10T01:56:20;7.22;;;4.47;;
47778;SDS011;33538;48.432;11.350;2023-06-10T01:58:47;6.47;;;4.40;;
47778;SDS011;33538;48.432;11.350;2023-06-10T02:01:14;7.45;;;4.82;;
47778;SDS011;33538;48.432;11.350;2023-06-10T02:03:41;6.78;;;4.82;;
47778;SDS011;33538;48.432;11.350;2023-06-10T02:06:08;6.80;;;4.45;;
47778;SDS011;33538;48.432;11.350;2023-06-10T02:08:34;8.70;;;4.47;;
47778;SDS011;33538;48.432;11.350;2023-06-10T02:11:03;6.65;;;5.00;;
47778;SDS011;33538;48.432;11.350;2023-06-10T02:13:29;6.43;;;4.70;;
47778;SDS011;33538;48.432;11.350;2023-06-10T02:15:56;7.60;;;4.50;;
47778;SDS011;33538;48.432;11.350;2023-06-10T02:18:23;5.13;;;3.70;;
47778;SDS011;33538;48.432;11.350;2023-06-10T02:20:50;6.35;;;4.40;;
47778;SDS011;33538;48.432;11.350;2023-06-10T02:23:16;6.28;;;4.72;;
47778;SDS011;33538;48.432;11.350;2023-06-10T02:25:43;5.93;;;5.03;;
47778;SDS011;33538;48.432;11.350;2023-06-10T02:28:11;6.88;;;5.20;;
47778;SDS011;33538;48.432;11.350;2023-06-10T02:30:38;7.85;;;5.45;;
47778;SDS011;33538;48.432;11.350;2023-06-10T02:33:05;7.82;;;5.40;;
47778;SDS011;33538;48.432;11.350;2023-06-10T02:35:32;6.10;;;4.68;;
47778;SDS011;33538;48.432;11.350;2023-06-10T02:37:59;7.63;;;5.20;;
47778;SDS011;33538;48.432;11.350;2023-06-10T02:40:26;8.65;;;5.82;;
47778;SDS011;33538;48.432;11.350;2023-06-10T02:42:53;6.70;;;5.18;;
47778;SDS011;33538;48.432;11.350;2023-06-10T02:45:21;10.95;;;5.50;;
47778;SDS011;33538;48.432;11.350;2023-06-10T02:47:48;7.53;;;5.07;;
47778;SDS011;33538;48.432;11.350;2023-06-10T02:50:15;7.53;;;5.18;;
47778;SDS011;33538;48.432;11.350;2023-06-10T02:52:41;7.50;;;5.18;;
47778;SDS011;33538;48.432;11.350;2023-06-10T02:55:08;5.70;;;4.72;;
47778;SDS011;33538;48.432;11.350;2023-06-10T02:57:36;6.85;;;5.28;;
47778;SDS011;33538;48.432;11.350;2023-06-10T03:00:03;10.38;;;5.65;;
47778;SDS011;33538;48.432;11.350;2023-06-10T03:02:31;10.15;;;5.57;;
47778;SDS011;33538;48.432;11.350;2023-06-10T03:04:58;8.07;;;4.57;;
47778;SDS011;33538;48.432;11.350;2023-06-10T03:07:25;8.18;;;4.65;;
47778;SDS011;33538;48.432;11.350;2023-06-10T03:09:52;7.70;;;4.63;;
47778;SDS011;33538;48.432;11.350;2023-06-10T03:12:18;7.60;;;5.10;;
47778;SDS011;33538;48.432;11.350;2023-06-10T03:14:45;7.07;;;5.22;;
47778;SDS011;33538;48.432;11.350;2023-06-10T03:17:12;8.27;;;5.05;;
47778;SDS011;33538;48.432;11.350;2023-06-10T03:19:40;7.22;;;4.85;;
47778;SDS011;33538;48.432;11.350;2023-06-10T03:22:08;7.75;;;5.22;;
47778;SDS011;33538;48.432;11.350;2023-06-10T03:24:35;9.30;;;4.30;;
47778;SDS011;33538;48.432;11.350;2023-06-10T03:27:02;7.85;;;4.82;;
47778;SDS011;33538;48.432;11.350;2023-06-10T03:29:29;7.18;;;5.38;;
47778;SDS011;33538;48.432;11.350;2023-06-10T03:31:56;11.43;;;5.40;;
47778;SDS011;33538;48.432;11.350;2023-06-10T03:34:23;6.45;;;5.03;;
47778;SDS011;33538;48.432;11.350;2023-06-10T03:36:51;6.85;;;5.10;;
47778;SDS011;33538;48.432;11.350;2023-06-10T03:39:18;5.93;;;4.40;;
47778;SDS011;33538;48.432;11.350;2023-06-10T03:41:45;9.57;;;4.78;;
47778;SDS011;33538;48.432;11.350;2023-06-10T03:44:12;6.70;;;4.63;;
47778;SDS011;33538;48.432;11.350;2023-06-10T03:46:38;6.35;;;4.80;;
47778;SDS011;33538;48.432;11.350;2023-06-10T03:49:05;6.90;;;5.10;;
47778;SDS011;33538;48.432;11.350;2023-06-10T03:51:32;6.15;;;4.72;;
47778;SDS011;33538;48.432;11.350;2023-06-10T03:54:00;8.18;;;5.28;;
47778;SDS011;33538;48.432;11.350;2023-06-10T03:56:27;6.93;;;4.70;;
47778;SDS011;33538;48.432;11.350;2023-06-10T03:58:54;6.90;;;4.82;;
47778;SDS011;33538;48.432;11.350;2023-06-10T04:01:21;6.28;;;4.85;;
47778;SDS011;33538;48.432;11.350;2023-06-10T04:03:48;7.72;;;4.80;;
47778;SDS011;33538;48.432;11.350;2023-06-10T04:06:14;8.90;;;4.95;;
47778;SDS011;33538;48.432;11.350;2023-06-10T04:08:41;7.40;;;4.88;;
47778;SDS011;33538;48.432;11.350;2023-06-10T04:11:09;6.60;;;5.05;;
47778;SDS011;33538;48.432;11.350;2023-06-10T04:13:36;7.75;;;5.78;;
47778;SDS011;33538;48.432;11.350;2023-06-10T04:16:03;9.80;;;5.97;;
47778;SDS011;33538;48.432;11.350;2023-06-10T04:18:30;7.78;;;5.10;;
47778;SDS011;33538;48.432;11.350;2023-06-10T04:20:57;8.40;;;6.03;;
47778;SDS011;33538;48.432;11.350;2023-06-10T04:23:24;8.63;;;5.47;;
47778;SDS011;33538;48.432;11.350;2023-06-10T04:25:51;9.05;;;6.15;;
47778;SDS011;33538;48.432;11.350;2023-06-10T04:28:19;10.02;;;5.18;;
47778;SDS011;33538;48.432;11.350;2023-06-10T04:30:45;8.38;;;5.72;;
47778;SDS011;33538;48.432;11.350;2023-06-10T04:33:12;9.20;;;5.57;;
47778;SDS011;33538;48.432;11.350;2023-06-10T04:35:39;7.35;;;5.47;;
47778;SDS011;33538;48.432;11.350;2023-06-10T04:38:06;7.57;;;5.68;;
47778;SDS011;33538;48.432;11.350;2023-06-10T04:40:33;8.10;;;5.80;;
47778;SDS011;33538;48.432;11.350;2023-06-10T04:42:59;8.50;;;5.68;;
47778;SDS011;33538;48.432;11.350;2023-06-10T04:45:28;8.30;;;5.38;;
47778;SDS011;33538;48.432;11.350;2023-06-10T04:47:54;8.48;;;5.68;;
47778;SDS011;33538;48.432;11.350;2023-06-10T04:50:21;9.82;;;5.88;;
47778;SDS011;33538;48.432;11.350;2023-06-10T04:52:48;8.93;;;6.18;;
47778;SDS011;33538;48.432;11.350;2023-06-10T04:55:15;9.13;;;5.07;;
47778;SDS011;33538;48.432;11.350;2023-06-10T04:57:42;6.70;;;4.70;;
47778;SDS011;33538;48.432;11.350;2023-06-10T05:00:09;10.85;;;5.93;;
47778;SDS011;33538;48.432;11.350;2023-06-10T05:02:38;9.02;;;5.63;;
47778;SDS011;33538;48.432;11.350;2023-06-10T05:05:05;7.18;;;5.05;;
47778;SDS011;33538;48.432;11.350;2023-06-10T05:07:32;8.65;;;5.68;;
47778;SDS011;33538;48.432;11.350;2023-06-10T05:09:59;7.22;;;4.63;;
47778;SDS011;33538;48.432;11.350;2023-06-10T05:12:26;7.93;;;5.05;;
47778;SDS011;33538;48.432;11.350;2023-06-10T05:14:53;11.43;;;5.18;;
47778;SDS011;33538;48.432;11.350;2023-06-10T05:17:19;9.65;;;5.22;;
47778;SDS011;33538;48.432;11.350;2023-06-10T05:19:48;7.82;;;5.00;;
47778;SDS011;33538;48.432;11.350;2023-06-10T05:22:14;8.07;;;5.28;;
47778;SDS011;33538;48.432;11.350;2023-06-10T05:24:41;8.27;;;5.53;;
47778;SDS011;33538;48.432;11.350;2023-06-10T05:27:08;9.60;;;5.47;;
47778;SDS011;33538;48.432;11.350;2023-06-10T05:29:35;7.72;;;4.70;;
47778;SDS011;33538;48.432;11.350;2023-06-10T05:32:02;7.13;;;5.05;;
47778;SDS011;33538;48.432;11.350;2023-06-10T05:34:29;9.13;;;5.72;;
47778;SDS011;33538;48.432;11.350;2023-06-10T05:36:58;7.68;;;4.85;;
47778;SDS011;33538;48.432;11.350;2023-06-10T05:39:25;7.55;;;4.70;;
47778;SDS011;33538;48.432;11.350;2023-06-10T05:41:51;6.63;;;4.28;;
47778;SDS011;33538;48.432;11.350;2023-06-10T05:44:18;6.45;;;4.25;;
47778;SDS011;33538;48.432;11.350;2023-06-10T05:46:45;6.22;;;4.43;;
47778;SDS011;33538;48.432;11.350;2023-06-10T05:49:12;6.85;;;4.82;;
47778;SDS011;33538;48.432;11.350;2023-06-10T05:51:39;7.05;;;4.60;;
47778;SDS011;33538;48.432;11.350;2023-06-10T05:54:07;8.32;;;4.80;;
47778;SDS011;33538;48.432;11.350;2023-06-10T05:56:34;6.15;;;4.25;;
47778;SDS011;33538;48.432;11.350;2023-06-10T05:59:01;8.57;;;4.57;;
47778;SDS011;33538;48.432;11.350;2023-06-10T06:01:27;9.88;;;4.25;;
47778;SDS011;33538;48.432;11.350;2023-06-10T06:03:54;6.55;;;4.40;;
47778;SDS011;33538;48.432;11.350;2023-06-10T06:06:21;7.13;;;4.82;;
47778;SDS011;33538;48.432;11.350;2023-06-10T06:08:48;9.68;;;4.78;;
47778;SDS011;33538;48.432;11.350;2023-06-10T06:11:16;6.65;;;4.40;;
47778;SDS011;33538;48.432;11.350;2023-06-10T06:13:43;7.30;;;4.65;;
47778;SDS011;33538;48.432;11.350;2023-06-10T06:16:10;7.32;;;5.03;;
47778;SDS011;33538;48.432;11.350;2023-06-10T06:18:37;7.95;;;4.93;;
47778;SDS011;33538;48.432;11.350;2023-06-10T06:21:04;6.82;;;4.28;;
47778;SDS011;33538;48.432;11.350;2023-06-10T06:23:30;8.02;;;4.70;;
47778;SDS011;33538;48.432;11.350;2023-06-10T06:25:57;8.25;;;4.78;;
47778;SDS011;33538;48.432;11.350;2023-06-10T06:28:25;6.07;;;4.35;;
47778;SDS011;33538;48.432;11.350;2023-06-10T06:30:52;6.97;;;4.60;;
47778;SDS011;33538;48.432;11.350;2023-06-10T06:33:19;7.25;;;4.70;;
47778;SDS011;33538;48.432;11.350;2023-06-10T06:35:46;6.25;;;4.22;;
47778;SDS011;33538;48.432;11.350;2023-06-10T06:38:13;7.97;;;4.80;;
47778;SDS011;33538;48.432;11.350;2023-06-10T06:40:39;7.00;;;4.30;;
47778;SDS011;33538;48.432;11.350;2023-06-10T06:43:06;8.43;;;5.05;;
47778;SDS011;33538;48.432;11.350;2023-06-10T06:45:34;6.45;;;4.30;;
47778;SDS011;33538;48.432;11.350;2023-06-10T06:48:01;6.65;;;4.10;;
47778;SDS011;33538;48.432;11.350;2023-06-10T06:50:28;7.53;;;4.60;;
47778;SDS011;33538;48.432;11.350;2023-06-10T06:52:55;5.82;;;4.10;;
47778;SDS011;33538;48.432;11.350;2023-06-10T06:55:22;5.65;;;3.85;;
47778;SDS011;33538;48.432;11.350;2023-06-10T06:57:49;5.97;;;3.80;;
47778;SDS011;33538;48.432;11.350;2023-06-10T07:00:16;5.28;;;3.58;;
47778;SDS011;33538;48.432;11.350;2023-06-10T07:02:44;6.07;;;3.72;;
47778;SDS011;33538;48.432;11.350;2023-06-10T07:05:11;6.95;;;3.50;;
47778;SDS011;33538;48.432;11.350;2023-06-10T07:07:39;5.68;;;3.70;;
47778;SDS011;33538;48.432;11.350;2023-06-10T07:10:06;5.07;;;3.20;;
47778;SDS011;33538;48.432;11.350;2023-06-10T07:12:33;5.10;;;3.30;;
47778;SDS011;33538;48.432;11.350;2023-06-10T07:15:00;5.28;;;3.53;;
47778;SDS011;33538;48.432;11.350;2023-06-10T07:17:27;7.18;;;3.60;;
47778;SDS011;33538;48.432;11.350;2023-06-10T07:19:55;4.85;;;3.30;;
47778;SDS011;33538;48.432;11.350;2023-06-10T07:22:22;6.60;;;3.55;;
47778;SDS011;33538;48.432;11.350;2023-06-10T07:24:48;7.13;;;3.70;;
47778;SDS011;33538;48.432;11.350;2023-06-10T07:27:15;5.97;;;3.78;;
47778;SDS011;33538;48.432;11.350;2023-06-10T07:29:42;5.85;;;3.20;;
47778;SDS011;33538;48.432;11.350;2023-06-10T07:32:09;4.47;;;3.33;;
47778;SDS011;33538;48.432;11.350;2023-06-10T07:34:36;4.68;;;3.13;;
47778;SDS011;33538;48.432;11.350;2023-06-10T07:37:04;4.85;;;3.65;;
47778;SDS011;33538;48.432;11.350;2023-06-10T07:39:31;5.38;;;3.75;;
47778;SDS011;33538;48.432;11.350;2023-06-10T07:41:58;6.63;;;3.47;;
47778;SDS011;33538;48.432;11.350;2023-06-10T07:44:25;6.95;;;4.13;;
47778;SDS011;33538;48.432;11.350;2023-06-10T07:46:52;5.93;;;4.30;;
47778;SDS011;33538;48.432;11.350;2023-06-10T07:49:19;5.90;;;4.03;;
47778;SDS011;33538;48.432;11.350;2023-06-10T07:51:46;6.22;;;4.00;;
47778;SDS011;33538;48.432;11.350;2023-06-10T07:54:14;5.57;;;3.60;;
47778;SDS011;33538;48.432;11.350;2023-06-10T07:56:43;5.45;;;3.67;;
47778;SDS011;33538;48.432;11.350;2023-06-10T07:59:10;6.80;;;4.10;;
47778;SDS011;33538;48.432;11.350;2023-06-10T08:01:36;6.20;;;4.03;;
47778;SDS011;33538;48.432;11.350;2023-06-10T08:04:03;5.95;;;3.58;;
47778;SDS011;33538;48.432;11.350;2023-06-10T08:06:30;5.20;;;3.72;;
47778;SDS011;33538;48.432;11.350;2023-06-10T08:08:57;5.57;;;3.80;;
47778;SDS011;33538;48.432;11.350;2023-06-10T08:11:25;4.88;;;3.28;;
47778;SDS011;33538;48.432;11.350;2023-06-10T08:13:52;6.63;;;3.70;;
47778;SDS011;33538;48.432;11.350;2023-06-10T08:16:19;5.20;;;3.70;;
47778;SDS011;33538;48.432;11.350;2023-06-10T08:18:46;3.97;;;3.30;;
47778;SDS011;33538;48.432;11.350;2023-06-10T08:21:13;5.15;;;3.00;;
47778;SDS011;33538;48.432;11.350;2023-06-10T08:23:39;5.60;;;3.80;;
47778;SDS011;33538;48.432;11.350;2023-06-10T08:26:06;5.03;;;3.50;;
47778;SDS011;33538;48.432;11.350;2023-06-10T08:28:35;5.38;;;3.50;;
47778;SDS011;33538;48.432;11.350;2023-06-10T08:31:01;4.03;;;3.05;;
47778;SDS011;33538;48.432;11.350;2023-06-10T08:33:28;7.05;;;3.80;;
47778;SDS011;33538;48.432;11.350;2023-06-10T08:35:55;5.25;;;3.58;;
47778;SDS011;33538;48.432;11.350;2023-06-10T08:38:22;6.35;;;3.42;;
47778;SDS011;33538;48.432;11.350;2023-06-10T08:40:48;5.88;;;3.65;;
47778;SDS011;33538;48.432;11.350;2023-06-10T08:43:20;4.53;;;3.38;;
47778;SDS011;33538;48.432;11.350;2023-06-10T08:45:55;4.15;;;3.20;;
47778;SDS011;33538;48.432;11.350;2023-06-10T08:48:26;6.88;;;3.50;;
47778;SDS011;33538;48.432;11.350;2023-06-10T08:50:55;6.43;;;3.72;;
47778;SDS011;33538;48.432;11.350;2023-06-10T08:53:23;4.88;;;3.42;;
47778;SDS011;33538;48.432;11.350;2023-06-10T08:55:52;5.60;;;3.60;;
47778;SDS011;33538;48.432;11.350;2023-06-10T08:58:23;6.05;;;3.90;;
47778;SDS011;33538;48.432;11.350;2023-06-10T09:00:50;4.40;;;3.20;;
47778;SDS011;33538;48.432;11.350;2023-06-10T09:03:19;5.63;;;3.35;;
47778;SDS011;33538;48.432;11.350;2023-06-10T09:05:47;6.05;;;3.50;;
47778;SDS011;33538;48.432;11.350;2023-06-10T09:08:14;5.72;;;3.70;;
47778;SDS011;33538;48.432;11.350;2023-06-10T09:10:42;5.55;;;3.40;;
47778;SDS011;33538;48.432;11.350;2023-06-10T09:13:09;7.03;;;3.63;;
47778;SDS011;33538;48.432;11.350;2023-06-10T09:15:35;5.45;;;3.38;;
47778;SDS011;33538;48.432;11.350;2023-06-10T09:18:02;4.30;;;3.35;;
47778;SDS011;33538;48.432;11.350;2023-06-10T09:20:30;6.93;;;3.78;;
47778;SDS011;33538;48.432;11.350;2023-06-10T09:22:58;4.50;;;3.08;;
47778;SDS011;33538;48.432;11.350;2023-06-10T09:25:34;5.93;;;3.63;;
47778;SDS011;33538;48.432;11.350;2023-06-10T09:28:01;5.15;;;3.75;;
47778;SDS011;33538;48.432;11.350;2023-06-10T09:30:29;4.88;;;3.65;;
47778;SDS011;33538;48.432;11.350;2023-06-10T09:32:57;4.80;;;4.00;;
47778;SDS011;33538;48.432;11.350;2023-06-10T09:35:25;4.22;;;3.33;;
47778;SDS011;33538;48.432;11.350;2023-06-10T09:37:55;6.40;;;4.13;;
47778;SDS011;33538;48.432;11.350;2023-06-10T09:40:23;5.13;;;3.47;;
47778;SDS011;33538;48.432;11.350;2023-06-10T09:42:52;5.43;;;3.95;;
47778;SDS011;33538;48.432;11.350;2023-06-10T09:45:20;6.03;;;4.00;;
47778;SDS011;33538;48.432;11.350;2023-06-10T09:47:47;4.43;;;3.30;;
47778;SDS011;33538;48.432;11.350;2023-06-10T09:50:17;4.65;;;3.63;;
47778;SDS011;33538;48.432;11.350;2023-06-10T09:52:45;5.03;;;3.70;;
47778;SDS011;33538;48.432;11.350;2023-06-10T09:55:14;6.43;;;3.78;;
47778;SDS011;33538;48.432;11.350;2023-06-10T09:57:41;4.68;;;3.35;;
47778;SDS011;33538;48.432;11.350;2023-06-10T10:00:09;5.32;;;3.90;;
47778;SDS011;33538;48.432;11.350;2023-06-10T10:02:43;6.05;;;4.10;;
47778;SDS011;33538;48.432;11.350;2023-06-10T10:07:39;6.32;;;4.15;;
47778;SDS011;33538;48.432;11.350;2023-06-10T10:10:09;6.55;;;4.10;;
47778;SDS011;33538;48.432;11.350;2023-06-10T10:12:38;5.82;;;3.88;;
47778;SDS011;33538;48.432;11.350;2023-06-10T10:15:07;5.18;;;3.55;;
47778;SDS011;33538;48.432;11.350;2023-06-10T10:17:36;5.25;;;3.75;;
47778;SDS011;33538;48.432;11.350;2023-06-10T10:20:06;6.00;;;4.18;;
47778;SDS011;33538;48.432;11.350;2023-06-10T10:22:39;7.03;;;3.22;;
47778;SDS011;33538;48.432;11.350;2023-06-10T10:25:08;6.78;;;4.13;;
47778;SDS011;33538;48.432;11.350;2023-06-10T10:27:42;4.78;;;3.75;;
47778;SDS011;33538;48.432;11.350;2023-06-10T10:30:10;5.53;;;3.97;;
47778;SDS011;33538;48.432;11.350;2023-06-10T10:32:42;6.20;;;4.40;;
47778;SDS011;33538;48.432;11.350;2023-06-10T10:35:19;7.00;;;4.22;;
47778;SDS011;33538;48.432;11.350;2023-06-10T10:37:48;9.07;;;3.95;;
47778;SDS011;33538;48.432;11.350;2023-06-10T10:40:15;5.75;;;4.45;;
47778;SDS011;33538;48.432;11.350;2023-06-10T10:42:44;5.07;;;3.55;;
47778;SDS011;33538;48.432;11.350;2023-06-10T10:45:11;5.80;;;3.97;;
47778;SDS011;33538;48.432;11.350;2023-06-10T10:47:38;5.88;;;4.22;;
47778;SDS011;33538;48.432;11.350;2023-06-10T10:50:12;5.78;;;3.90;;
47778;SDS011;33538;48.432;11.350;2023-06-10T10:52:47;6.80;;;4.45;;
47778;SDS011;33538;48.432;11.350;2023-06-10T10:55:18;3.95;;;3.25;;
47778;SDS011;33538;48.432;11.350;2023-06-10T10:57:46;6.85;;;3.83;;
47778;SDS011;33538;48.432;11.350;2023-06-10T11:00:24;4.07;;;3.60;;
47778;SDS011;33538;48.432;11.350;2023-06-10T11:05:31;5.22;;;3.47;;
47778;SDS011;33538;48.432;11.350;2023-06-10T11:08:03;4.88;;;3.53;;
47778;SDS011;33538;48.432;11.350;2023-06-10T11:10:30;4.95;;;3.40;;
47778;SDS011;33538;48.432;11.350;2023-06-10T11:12:59;5.45;;;3.72;;
47778;SDS011;33538;48.432;11.350;2023-06-10T11:15:27;3.88;;;3.20;;
47778;SDS011;33538;48.432;11.350;2023-06-10T11:18:08;6.47;;;3.80;;
47778;SDS011;33538;48.432;11.350;2023-06-10T11:20:43;5.18;;;3.78;;
47778;SDS011;33538;48.432;11.350;2023-06-10T11:23:32;5.32;;;3.58;;
47778;SDS011;33538;48.432;11.350;2023-06-10T11:26:09;5.97;;;3.80;;
47778;SDS011;33538;48.432;11.350;2023-06-10T11:28:41;5.38;;;3.88;;
47778;SDS011;33538;48.432;11.350;2023-06-10T11:31:28;7.82;;;3.80;;
47778;SDS011;33538;48.432;11.350;2023-06-10T11:33:56;5.15;;;4.00;;
47778;SDS011;33538;48.432;11.350;2023-06-10T11:36:24;4.53;;;3.63;;
47778;SDS011;33538;48.432;11.350;2023-06-10T11:38:53;4.30;;;3.50;;
47778;SDS011;33538;48.432;11.350;2023-06-10T11:41:21;4.43;;;3.50;;
47778;SDS011;33538;48.432;11.350;2023-06-10T11:43:51;4.38;;;3.53;;
47778;SDS011;33538;48.432;11.350;2023-06-10T11:46:18;6.30;;;3.53;;
47778;SDS011;33538;48.432;11.350;2023-06-10T11:48:48;5.45;;;3.70;;
47778;SDS011;33538;48.432;11.350;2023-06-10T11:51:15;3.92;;;3.20;;
47778;SDS011;33538;48.432;11.350;2023-06-10T11:53:43;5.25;;;3.67;;
47778;SDS011;33538;48.432;11.350;2023-06-10T11:56:10;5.88;;;3.60;;
47778;SDS011;33538;48.432;11.350;2023-06-10T11:58:37;4.25;;;3.50;;
47778;SDS011;33538;48.432;11.350;2023-06-10T12:01:09;5.78;;;3.50;;
47778;SDS011;33538;48.432;11.350;2023-06-10T12:03:38;4.72;;;3.28;;
47778;SDS011;33538;48.432;11.350;2023-06-10T12:06:05;4.72;;;3.70;;
47778;SDS011;33538;48.432;11.350;2023-06-10T12:08:33;6.93;;;4.00;;
47778;SDS011;33538;48.432;11.350;2023-06-10T12:11:07;5.05;;;3.53;;
47778;SDS011;33538;48.432;11.350;2023-06-10T12:13:34;5.25;;;3.90;;
47778;SDS011;33538;48.432;11.350;2023-06-10T12:16:07;5.35;;;3.75;;
47778;SDS011;33538;48.432;11.350;2023-06-10T12:18:36;6.45;;;3.88;;
47778;SDS011;33538;48.432;11.350;2023-06-10T12:21:02;4.50;;;3.40;;
47778;SDS011;33538;48.432;11.350;2023-06-10T12:23:40;5.82;;;3.63;;
47778;SDS011;33538;48.432;11.350;2023-06-10T12:26:33;4.07;;;3.05;;
47778;SDS011;33538;48.432;11.350;2023-06-10T12:29:17;5.03;;;3.65;;
47778;SDS011;33538;48.432;11.350;2023-06-10T12:31:57;4.93;;;3.50;;
47778;SDS011;33538;48.432;11.350;2023-06-10T12:34:31;3.67;;;2.83;;
47778;SDS011;33538;48.432;11.350;2023-06-10T12:37:02;4.53;;;3.35;;
47778;SDS011;33538;48.432;11.350;2023-06-10T12:39:30;5.80;;;3.63;;
47778;SDS011;33538;48.432;11.350;2023-06-10T12:41:57;4.47;;;3.45;;
47778;SDS011;33538;48.432;11.350;2023-06-10T12:44:28;4.53;;;3.53;;
47778;SDS011;33538;48.432;11.350;2023-06-10T12:46:55;4.97;;;3.28;;
47778;SDS011;33538;48.432;11.350;2023-06-10T12:49:22;5.63;;;3.53;;
47778;SDS011;33538;48.432;11.350;2023-06-10T12:51:50;4.22;;;3.40;;
47778;SDS011;33538;48.432;11.350;2023-06-10T12:54:18;5.75;;;4.10;;
47778;SDS011;33538;48.432;11.350;2023-06-10T12:56:44;5.13;;;3.00;;
47778;SDS011;33538;48.432;11.350;2023-06-10T12:59:11;5.15;;;4.47;;
47778;SDS011;33538;48.432;11.350;2023-06-10T13:01:38;3.90;;;3.13;;
47778;SDS011;33538;48.432;11.350;2023-06-10T13:04:05;4.93;;;3.70;;
47778;SDS011;33538;48.432;11.350;2023-06-10T13:06:32;4.25;;;3.47;;
47778;SDS011;33538;48.432;11.350;2023-06-10T13:09:01;4.53;;;3.47;;
47778;SDS011;33538;48.432;11.350;2023-06-10T13:11:28;4.38;;;3.10;;
47778;SDS011;33538;48.432;11.350;2023-06-10T13:13:55;7.18;;;3.47;;
47778;SDS011;33538;48.432;11.350;2023-06-10T13:16:22;4.70;;;3.40;;
47778;SDS011;33538;48.432;11.350;2023-06-10T13:18:49;5.13;;;3.20;;
47778;SDS011;33538;48.432;11.350;2023-06-10T13:21:15;5.10;;;3.30;;
47778;SDS011;33538;48.432;11.350;2023-06-10T13:23:43;4.78;;;3.38;;
47778;SDS011;33538;48.432;11.350;2023-06-10T13:26:12;5.07;;;3.80;;
47778;SDS011;33538;48.432;11.350;2023-06-10T13:28:38;5.00;;;3.92;;
47778;SDS011;33538;48.432;11.350;2023-06-10T13:31:05;7.43;;;3.45;;
47778;SDS011;33538;48.432;11.350;2023-06-10T13:33:32;6.97;;;3.13;;
47778;SDS011;33538;48.432;11.350;2023-06-10T13:35:59;6.22;;;3.28;;
47778;SDS011;33538;48.432;11.350;2023-06-10T13:38:26;3.90;;;3.13;;
47778;SDS011;33538;48.432;11.350;2023-06-10T13:40:52;4.95;;;3.45;;
47778;SDS011;33538;48.432;11.350;2023-06-10T13:43:20;4.32;;;3.08;;
47778;SDS011;33538;48.432;11.350;2023-06-10T13:45:47;4.18;;;3.05;;
47778;SDS011;33538;48.432;11.350;2023-06-10T13:48:14;3.28;;;2.70;;
47778;SDS011;33538;48.432;11.350;2023-06-10T13:50:41;3.28;;;2.67;;
47778;SDS011;33538;48.432;11.350;2023-06-10T13:53:08;3.75;;;2.42;;
47778;SDS011;33538;48.432;11.350;2023-06-10T13:55:35;3.50;;;3.20;;
47778;SDS011;33538;48.432;11.350;2023-06-10T13:58:01;3.55;;;2.97;;
47778;SDS011;33538;48.432;11.350;2023-06-10T14:00:29;4.07;;;2.83;;
47778;SDS011;33538;48.432;11.350;2023-06-10T14:02:56;2.20;;;1.90;;
47778;SDS011;33538;48.432;11.350;2023-06-10T14:05:23;8.75;;;2.63;;
47778;SDS011;33538;48.432;11.350;2023-06-10T14:07:50;2.58;;;2.20;;
47778;SDS011;33538;48.432;11.350;2023-06-10T14:10:18;4.68;;;2.58;;
47778;SDS011;33538;48.432;11.350;2023-06-10T14:12:46;3.50;;;2.70;;
47778;SDS011;33538;48.432;11.350;2023-06-10T14:15:14;4.07;;;2.60;;
47778;SDS011;33538;48.432;11.350;2023-06-10T14:17:43;5.47;;;2.80;;
47778;SDS011;33538;48.432;11.350;2023-06-10T14:20:11;3.72;;;2.63;;
47778;SDS011;33538;48.432;11.350;2023-06-10T14:22:39;3.47;;;2.88;;
47778;SDS011;33538;48.432;11.350;2023-06-10T14:25:08;3.05;;;2.38;;
47778;SDS011;33538;48.432;11.350;2023-06-10T14:27:35;3.90;;;2.70;;
47778;SDS011;33538;48.432;11.350;2023-06-10T14:30:03;2.63;;;2.13;;
47778;SDS011;33538;48.432;11.350;2023-06-10T14:32:34;3.25;;;2.47;;
47778;SDS011;33538;48.432;11.350;2023-06-10T14:35:03;3.67;;;2.33;;
47778;SDS011;33538;48.432;11.350;2023-06-10T14:37:31;3.80;;;2.42;;
47778;SDS011;33538;48.432;11.350;2023-06-10T14:39:57;3.45;;;2.47;;
47778;SDS011;33538;48.432;11.350;2023-06-10T14:42:25;3.17;;;2.30;;
47778;SDS011;33538;48.432;11.350;2023-06-10T14:44:53;2.00;;;1.80;;
47778;SDS011;33538;48.432;11.350;2023-06-10T14:47:20;2.70;;;2.00;;